createdAt,value
2018-11-26T00:00:32.225Z,28.30
2018-11-26T00:03:00.426Z,26.07
2018-11-26T00:05:28.701Z,27.27
2018-11-26T00:07:56.878Z,28.20
2018-11-26T00:10:36.278Z,27.67
2018-11-26T00:13:04.768Z,27.10
2018-11-26T00:15:33.038Z,27.40
2018-11-26T00:18:01.224Z,29.20
2018-11-26T00:20:29.487Z,28.57
2018-11-26T00:22:57.710Z,28.43
2018-11-26T00:25:25.942Z,29.30
2018-11-26T00:27:54.140Z,29.33
2018-11-26T00:30:22.354Z,29.20
2018-11-26T00:32:50.683Z,31.20
2018-11-26T00:35:18.848Z,33.40
2018-11-26T00:37:47.114Z,31.50
2018-11-26T00:40:15.356Z,32.80
2018-11-26T00:42:43.630Z,33.53
2018-11-26T00:45:12.117Z,29.70
2018-11-26T00:47:40.293Z,33.90
2018-11-26T00:50:09.489Z,31.00
2018-11-26T00:52:38.128Z,33.60
2018-11-26T00:55:07.748Z,34.50
2018-11-26T00:57:36.000Z,33.93
2018-11-26T01:00:05.138Z,34.30
2018-11-26T01:02:33.463Z,34.20
2018-11-26T01:05:01.773Z,37.33
2018-11-26T01:07:30.566Z,36.63
2018-11-26T01:09:58.876Z,37.60
2018-11-26T01:12:27.196Z,36.67
2018-11-26T01:14:56.612Z,36.57
2018-11-26T01:17:24.952Z,36.90
2018-11-26T01:19:53.279Z,35.60
2018-11-26T01:22:21.537Z,35.60
2018-11-26T01:24:49.758Z,35.90
2018-11-26T01:27:18.092Z,35.73
2018-11-26T01:29:46.435Z,36.93
2018-11-26T01:32:14.687Z,35.20
2018-11-26T01:34:43.192Z,34.60
2018-11-26T01:37:11.521Z,35.30
2018-11-26T01:39:39.767Z,32.53
2018-11-26T01:42:08.045Z,35.70
2018-11-26T01:44:36.339Z,34.97
2018-11-26T01:47:04.609Z,32.80
2018-11-26T01:49:32.922Z,33.83
2018-11-26T01:52:01.262Z,33.63
2018-11-26T01:54:29.534Z,34.33
2018-11-26T01:56:57.790Z,32.53
2018-11-26T01:59:26.009Z,33.03
2018-11-26T02:01:54.301Z,32.43
2018-11-26T02:04:22.509Z,34.67
2018-11-26T02:06:50.772Z,33.80
2018-11-26T02:09:18.966Z,35.00
2018-11-26T02:11:47.173Z,33.13
2018-11-26T02:14:15.491Z,34.20
2018-11-26T02:16:43.689Z,34.88
2018-11-26T02:19:12.001Z,33.98
2018-11-26T02:21:40.235Z,33.80
2018-11-26T02:24:08.576Z,36.70
2018-11-26T02:26:36.760Z,34.40
2018-11-26T02:29:05.183Z,34.77
2018-11-26T02:31:33.409Z,32.60
2018-11-26T02:34:01.763Z,33.03
2018-11-26T02:36:29.933Z,33.60
2018-11-26T02:38:58.174Z,31.30
2018-11-26T02:41:26.375Z,30.70
2018-11-26T02:43:54.587Z,30.13
2018-11-26T02:46:22.826Z,31.20
2018-11-26T02:48:51.114Z,26.60
2018-11-26T02:51:19.313Z,31.13
2018-11-26T02:53:47.538Z,29.00
2018-11-26T02:56:15.729Z,29.80
2018-11-26T02:58:43.969Z,27.20
2018-11-26T03:01:12.232Z,27.13
2018-11-26T03:03:40.479Z,28.50
2018-11-26T03:06:08.767Z,28.57
2018-11-26T03:08:37.035Z,27.87
2018-11-26T03:11:05.702Z,29.40
2018-11-26T03:13:33.945Z,29.20
2018-11-26T03:16:02.166Z,29.67
2018-11-26T03:18:30.393Z,29.23
2018-11-26T03:20:58.649Z,29.07
2018-11-26T03:23:26.942Z,30.03
2018-11-26T03:25:55.276Z,29.80
2018-11-26T03:28:23.802Z,29.90
2018-11-26T03:30:52.032Z,29.53
2018-11-26T03:33:20.283Z,24.60
2018-11-26T03:35:48.497Z,24.70
2018-11-26T03:38:21.972Z,24.67
2018-11-26T03:40:50.201Z,25.50
2018-11-26T03:43:18.448Z,26.10
2018-11-26T03:45:46.708Z,25.90
2018-11-26T03:48:14.934Z,25.60
2018-11-26T03:50:43.142Z,22.90
2018-11-26T03:53:11.384Z,23.17
2018-11-26T03:55:39.597Z,24.27
2018-11-26T03:58:07.832Z,25.13
2018-11-26T04:00:36.038Z,25.73
2018-11-26T04:03:04.253Z,26.90
2018-11-26T04:05:32.480Z,24.00
2018-11-26T04:08:00.732Z,24.93
2018-11-26T04:10:28.938Z,25.90
2018-11-26T04:12:57.153Z,24.57
2018-11-26T04:15:25.390Z,24.47
2018-11-26T04:17:53.674Z,25.00
2018-11-26T04:20:21.894Z,24.77
2018-11-26T04:22:50.091Z,23.87
2018-11-26T04:25:18.338Z,26.87
2018-11-26T04:27:46.582Z,24.70
2018-11-26T04:30:14.858Z,26.10
2018-11-26T04:32:43.156Z,24.97
2018-11-26T04:35:11.448Z,25.87
2018-11-26T04:37:39.717Z,25.50
2018-11-26T04:40:09.716Z,27.57
2018-11-26T04:42:37.992Z,27.67
2018-11-26T04:45:07.758Z,27.10
2018-11-26T04:47:36.170Z,25.03
2018-11-26T04:50:05.431Z,25.10
2018-11-26T04:52:33.640Z,24.23
2018-11-26T04:55:01.832Z,23.80
2018-11-26T04:57:30.060Z,23.80
2018-11-26T04:59:59.065Z,24.27
2018-11-26T05:02:27.248Z,24.30
2018-11-26T05:04:55.523Z,24.40
2018-11-26T05:07:23.691Z,24.47
2018-11-26T05:09:51.877Z,23.27
2018-11-26T05:12:20.073Z,23.57
2018-11-26T05:14:48.243Z,23.83
2018-11-26T05:17:16.435Z,24.63
2018-11-26T05:19:44.646Z,24.03
2018-11-26T05:22:12.817Z,24.10
2018-11-26T05:24:41.009Z,24.87
2018-11-26T05:27:09.172Z,24.20
2018-11-26T05:29:37.391Z,25.43
2018-11-26T05:32:06.402Z,22.90
2018-11-26T05:34:34.570Z,22.40
2018-11-26T05:37:02.750Z,23.27
2018-11-26T05:39:30.907Z,24.30
2018-11-26T05:41:59.099Z,24.30
2018-11-26T05:44:27.359Z,23.87
2018-11-26T05:46:55.541Z,25.40
2018-11-26T05:49:23.717Z,22.47
2018-11-26T05:51:51.930Z,24.03
2018-11-26T05:54:20.186Z,24.00
2018-11-26T05:56:48.321Z,25.33
2018-11-26T05:59:16.537Z,25.00
2018-11-26T06:01:44.728Z,25.10
2018-11-26T06:04:12.881Z,25.63
2018-11-26T06:06:41.087Z,25.80
2018-11-26T06:09:09.969Z,27.60
2018-11-26T06:11:39.274Z,25.87
2018-11-26T06:14:07.489Z,28.67
2018-11-26T06:16:36.801Z,28.50
2018-11-26T06:19:04.947Z,26.40
2018-11-26T06:21:33.161Z,26.40
2018-11-26T06:24:01.333Z,27.20
2018-11-26T06:26:29.539Z,26.60
2018-11-26T06:28:58.298Z,27.93
2018-11-26T06:31:26.452Z,29.40
2018-11-26T06:33:54.688Z,28.00
2018-11-26T06:36:22.855Z,28.83
2018-11-26T06:38:51.638Z,29.37
2018-11-26T06:41:19.827Z,28.97
2018-11-26T06:43:48.011Z,29.20
2018-11-26T06:46:16.193Z,31.83
2018-11-26T06:48:45.351Z,30.27
2018-11-26T06:51:12.584Z,28.87
2018-11-26T06:53:40.764Z,31.10
2018-11-26T06:56:08.937Z,30.03
2018-11-26T06:58:37.066Z,32.20
2018-11-26T07:01:05.391Z,29.10
2018-11-26T07:03:33.621Z,31.20
2018-11-26T07:06:01.803Z,31.33
2018-11-26T07:08:30.026Z,30.80
2018-11-26T07:10:58.225Z,31.63
2018-11-26T07:13:26.359Z,31.33
2018-11-26T07:15:54.539Z,30.90
2018-11-26T07:18:22.695Z,30.87
2018-11-26T07:20:50.907Z,30.00
2018-11-26T07:23:19.114Z,29.40
2018-11-26T07:25:47.318Z,28.90
2018-11-26T07:28:15.491Z,31.20
2018-11-26T07:30:43.736Z,33.70
2018-11-26T07:33:11.916Z,31.50
2018-11-26T07:35:40.174Z,32.10
2018-11-26T07:38:08.311Z,31.30
2018-11-26T07:40:36.550Z,31.90
2018-11-26T07:43:09.217Z,30.13
2018-11-26T07:45:37.584Z,31.37
2018-11-26T07:48:06.542Z,30.70
2018-11-26T07:50:35.683Z,31.30
2018-11-26T07:53:03.954Z,31.63
2018-11-26T07:55:32.214Z,31.90
2018-11-26T07:58:00.398Z,31.17
2018-11-26T08:00:28.559Z,29.83
2018-11-26T08:02:56.764Z,32.53
2018-11-26T08:05:24.980Z,30.10
2018-11-26T08:07:53.140Z,29.90
2018-11-26T08:10:22.310Z,30.97
2018-11-26T08:12:51.555Z,31.27
2018-11-26T08:15:22.547Z,30.80
2018-11-26T08:17:49.955Z,30.60
2018-11-26T08:20:18.218Z,30.93
2018-11-26T08:22:46.422Z,29.30
2018-11-26T08:25:15.888Z,29.30
2018-11-26T08:27:44.679Z,30.50
2018-11-26T08:30:15.654Z,31.20
2018-11-26T08:32:44.678Z,30.23
2018-11-26T08:35:14.704Z,29.33
2018-11-26T08:37:48.301Z,29.23
2018-11-26T08:40:24.778Z,29.83
2018-11-26T08:42:58.284Z,29.80
2018-11-26T08:45:29.728Z,28.43
2018-11-26T08:48:05.540Z,27.73
2018-11-26T08:50:34.050Z,29.83
2018-11-26T08:53:02.196Z,27.43
2018-11-26T08:55:30.476Z,28.13
2018-11-26T08:57:58.744Z,28.47
2018-11-26T09:00:26.956Z,27.20
2018-11-26T09:03:00.250Z,27.40
2018-11-26T09:05:34.193Z,25.57
2018-11-26T09:08:02.545Z,23.83
2018-11-26T09:10:30.749Z,24.97
2018-11-26T09:12:58.980Z,24.37
2018-11-26T09:15:27.736Z,26.10
2018-11-26T09:17:55.913Z,27.80
2018-11-26T09:20:24.085Z,24.80
2018-11-26T09:22:52.315Z,24.17
2018-11-26T09:25:20.517Z,24.70
2018-11-26T09:27:48.775Z,24.40
2018-11-26T09:30:17.133Z,23.93
2018-11-26T09:32:45.445Z,25.53
2018-11-26T09:35:14.833Z,24.43
2018-11-26T09:37:43.271Z,23.07
2018-11-26T09:40:14.188Z,23.70
2018-11-26T09:42:42.439Z,24.23
2018-11-26T09:45:11.943Z,23.47
2018-11-26T09:47:40.185Z,24.23
2018-11-26T09:50:11.791Z,23.90
2018-11-26T09:52:40.037Z,21.43
2018-11-26T09:55:08.727Z,21.87
2018-11-26T09:57:36.940Z,21.23
2018-11-26T10:00:08.455Z,23.20
2018-11-26T10:02:36.670Z,23.73
2018-11-26T10:05:07.315Z,20.90
2018-11-26T10:07:35.519Z,20.80
2018-11-26T10:10:03.857Z,21.40
2018-11-26T10:12:32.109Z,22.17
2018-11-26T10:15:00.287Z,21.23
2018-11-26T10:17:28.473Z,20.60
2018-11-26T10:19:56.681Z,21.23
2018-11-26T10:22:24.858Z,21.23
2018-11-26T10:24:53.071Z,20.00
2018-11-26T10:27:21.275Z,20.67
2018-11-26T10:29:49.489Z,20.23
2018-11-26T10:32:17.728Z,20.07
2018-11-26T10:34:45.946Z,18.83
2018-11-26T10:37:14.403Z,19.77
2018-11-26T10:39:42.665Z,19.53
2018-11-26T10:42:10.869Z,20.20
2018-11-26T10:44:39.051Z,20.07
2018-11-26T10:47:07.230Z,20.17
2018-11-26T10:49:35.412Z,18.70
2018-11-26T10:52:03.594Z,19.10
2018-11-26T10:54:31.801Z,18.60
2018-11-26T10:57:00.032Z,20.37
2018-11-26T10:59:28.320Z,17.60
2018-11-26T11:02:06.617Z,17.77
2018-11-26T11:04:34.877Z,17.70
2018-11-26T11:07:03.047Z,18.37
2018-11-26T11:09:31.231Z,17.00
2018-11-26T11:11:59.462Z,17.97
2018-11-26T11:14:27.645Z,18.50
2018-11-26T11:16:55.860Z,18.60
2018-11-26T11:19:24.054Z,18.10
2018-11-26T11:21:52.278Z,17.90
2018-11-26T11:24:20.435Z,16.67
2018-11-26T11:26:48.621Z,17.20
2018-11-26T11:29:16.831Z,16.50
2018-11-26T11:31:45.039Z,18.20
2018-11-26T11:34:13.266Z,16.63
2018-11-26T11:36:41.597Z,17.57
2018-11-26T11:39:09.937Z,16.80
2018-11-26T11:41:38.150Z,16.80
2018-11-26T11:44:06.365Z,15.67
2018-11-26T11:46:34.495Z,16.23
2018-11-26T11:49:02.721Z,16.17
2018-11-26T11:51:30.869Z,14.73
2018-11-26T11:53:59.073Z,15.33
2018-11-26T11:56:27.247Z,15.93
2018-11-26T11:58:55.456Z,15.00
2018-11-26T12:01:23.637Z,17.40
2018-11-26T12:03:51.847Z,16.03
2018-11-26T12:06:20.073Z,18.33
2018-11-26T12:08:48.323Z,16.03
2018-11-26T12:11:16.669Z,17.17
2018-11-26T12:13:44.844Z,17.33
2018-11-26T12:16:13.093Z,15.93
2018-11-26T12:18:41.287Z,18.40
2018-11-26T12:21:09.477Z,17.03
2018-11-26T12:23:38.195Z,17.20
2018-11-26T12:26:06.406Z,16.67
2018-11-26T12:28:34.600Z,16.97
2018-11-26T12:31:02.781Z,16.67
2018-11-26T12:33:31.032Z,15.90
2018-11-26T12:35:59.207Z,17.23
2018-11-26T12:38:27.417Z,17.83
2018-11-26T12:40:55.575Z,17.90
2018-11-26T12:43:23.795Z,17.00
2018-11-26T12:45:51.966Z,18.10
2018-11-26T12:48:20.221Z,18.03
2018-11-26T12:50:48.391Z,18.80
2018-11-26T12:53:16.615Z,19.57
2018-11-26T12:55:44.818Z,21.07
2018-11-26T12:58:13.089Z,20.90
2018-11-26T13:00:41.284Z,19.90
2018-11-26T13:03:10.979Z,19.93
2018-11-26T13:05:39.223Z,20.90
2018-11-26T13:08:08.049Z,19.50
2018-11-26T13:10:36.311Z,20.47
2018-11-26T13:13:04.548Z,18.30
2018-11-26T13:15:32.777Z,18.63
2018-11-26T13:18:01.070Z,18.33
2018-11-26T13:20:30.323Z,20.87
2018-11-26T13:22:58.498Z,20.80
2018-11-26T13:25:30.594Z,23.17
2018-11-26T13:28:02.652Z,20.63
2018-11-26T13:30:37.104Z,20.27
2018-11-26T13:33:07.628Z,20.87
2018-11-26T13:35:35.857Z,20.50
2018-11-26T13:38:04.110Z,20.90
2018-11-26T13:40:32.405Z,20.93
2018-11-26T13:43:00.554Z,21.00
2018-11-26T13:45:30.807Z,20.70
2018-11-26T13:47:59.048Z,22.30
2018-11-26T13:50:32.400Z,19.67
2018-11-26T13:53:00.661Z,21.10
2018-11-26T13:55:28.840Z,21.47
2018-11-26T13:57:57.067Z,20.90
2018-11-26T14:00:25.265Z,21.90
2018-11-26T14:02:53.516Z,20.67
2018-11-26T14:05:21.686Z,21.23
2018-11-26T14:07:49.932Z,19.80
2018-11-26T14:10:21.106Z,21.20
2018-11-26T14:12:55.500Z,21.07
2018-11-26T14:15:23.707Z,20.90
2018-11-26T14:17:51.903Z,20.37
2018-11-26T14:20:20.075Z,19.40
2018-11-26T14:22:48.305Z,21.40
2018-11-26T14:25:17.532Z,21.70
2018-11-26T14:27:46.304Z,19.83
2018-11-26T14:30:18.641Z,19.93
2018-11-26T14:32:46.877Z,20.40
2018-11-26T14:35:15.059Z,18.00
2018-11-26T14:37:43.440Z,19.00
2018-11-26T14:40:19.217Z,19.37
2018-11-26T14:42:47.627Z,19.53
2018-11-26T14:45:15.678Z,20.77
2018-11-26T14:47:44.632Z,21.20
2018-11-26T14:50:14.845Z,18.77
2018-11-26T14:52:44.076Z,17.67
2018-11-26T14:55:19.495Z,19.00
2018-11-26T14:57:47.670Z,19.53
2018-11-26T15:00:17.046Z,20.80
2018-11-26T15:02:45.290Z,19.00
2018-11-26T15:05:13.668Z,18.20
2018-11-26T15:07:41.806Z,18.90
2018-11-26T15:10:11.163Z,19.60
2018-11-26T15:12:39.705Z,18.13
2018-11-26T15:15:10.932Z,18.93
2018-11-26T15:17:39.349Z,19.23
2018-11-26T15:20:12.847Z,18.80
2018-11-26T15:25:17.558Z,16.93
2018-11-26T15:27:45.765Z,19.50
2018-11-26T15:30:18.375Z,19.80
2018-11-26T15:32:46.692Z,18.70
2018-11-26T15:35:17.719Z,19.10
2018-11-26T15:37:45.996Z,19.40
2018-11-26T15:40:15.242Z,20.90
2018-11-26T15:42:43.580Z,18.87
2018-11-26T15:45:12.895Z,20.10
2018-11-26T15:47:41.072Z,19.83
2018-11-26T15:50:09.555Z,18.33
2018-11-26T15:52:37.814Z,19.17
2018-11-26T15:55:07.921Z,20.90
2018-11-26T15:57:36.181Z,20.37
2018-11-26T16:00:05.013Z,19.30
2018-11-26T16:02:33.292Z,18.40
2018-11-26T16:05:01.466Z,18.97
2018-11-26T16:07:29.708Z,20.13
2018-11-26T16:09:57.940Z,18.37
2018-11-26T16:12:26.135Z,20.80
2018-11-26T16:14:54.360Z,19.63
2018-11-26T16:17:22.600Z,21.27
2018-11-26T16:20:22.323Z,19.93
2018-11-26T16:22:50.604Z,19.77
2018-11-26T16:25:20.157Z,17.90
2018-11-26T16:27:48.412Z,16.80
2018-11-26T16:30:17.230Z,17.20
2018-11-26T16:32:46.860Z,17.63
2018-11-26T16:35:17.227Z,16.03
2018-11-26T16:37:45.582Z,16.20
2018-11-26T16:40:16.512Z,16.73
2018-11-26T16:42:44.933Z,16.30
2018-11-26T16:45:18.074Z,16.60
2018-11-26T16:47:47.515Z,17.80
2018-11-26T16:50:16.626Z,17.33
2018-11-26T16:52:44.970Z,16.37
2018-11-26T16:55:14.737Z,19.63
2018-11-26T16:57:43.030Z,17.80
2018-11-26T17:00:14.673Z,17.90
2018-11-26T17:02:42.961Z,18.73
2018-11-26T17:05:12.686Z,18.90
2018-11-26T17:07:40.939Z,17.97
2018-11-26T17:10:09.729Z,18.83
2018-11-26T17:12:38.109Z,19.20
2018-11-26T17:15:08.474Z,18.70
2018-11-26T17:17:36.643Z,17.87
2018-11-26T17:20:05.249Z,18.20
2018-11-26T17:22:33.423Z,17.40
2018-11-26T17:25:01.607Z,17.43
2018-11-26T17:27:29.763Z,17.33
2018-11-26T17:29:57.973Z,16.90
2018-11-26T17:32:26.205Z,16.60
2018-11-26T17:34:54.405Z,16.70
2018-11-26T17:37:22.591Z,16.37
2018-11-26T17:39:50.745Z,16.60
2018-11-26T17:42:19.053Z,16.00
2018-11-26T17:44:47.231Z,16.87
2018-11-26T17:47:15.456Z,16.60
2018-11-26T17:49:43.623Z,15.40
2018-11-26T17:52:12.545Z,16.57
2018-11-26T17:54:40.758Z,14.90
2018-11-26T17:57:08.976Z,13.63
2018-11-26T17:59:37.195Z,13.37
2018-11-26T18:02:06.110Z,13.80
2018-11-26T18:04:34.313Z,14.20
2018-11-26T18:07:02.531Z,12.80
2018-11-26T18:09:30.789Z,14.70
2018-11-26T18:11:59.067Z,14.10
2018-11-26T18:14:27.271Z,13.80
2018-11-26T18:16:55.507Z,13.03
2018-11-26T18:19:23.721Z,12.40
2018-11-26T18:21:51.943Z,12.70
2018-11-26T18:24:20.113Z,13.70
2018-11-26T18:26:48.429Z,11.73
2018-11-26T18:29:18.537Z,12.50
2018-11-26T18:31:46.760Z,12.83
2018-11-26T18:34:14.949Z,12.07
2018-11-26T18:36:43.169Z,13.50
2018-11-26T18:39:12.244Z,13.23
2018-11-26T18:41:40.425Z,12.60
2018-11-26T18:44:08.635Z,11.57
2018-11-26T18:46:36.907Z,11.57
2018-11-26T18:49:05.120Z,11.80
2018-11-26T18:51:33.366Z,11.17
2018-11-26T18:54:01.686Z,11.80
2018-11-26T18:56:29.856Z,12.23
2018-11-26T18:58:58.084Z,12.10
2018-11-26T19:01:26.290Z,13.40
2018-11-26T19:03:54.494Z,13.90
2018-11-26T19:06:22.700Z,14.07
2018-11-26T19:08:50.982Z,14.10
2018-11-26T19:11:19.341Z,12.70
2018-11-26T19:14:09.610Z,13.10
2018-11-26T19:16:46.020Z,14.20
2018-11-26T19:19:14.257Z,13.10
2018-11-26T19:21:42.482Z,12.03
2018-11-26T19:24:10.751Z,13.97
2018-11-26T19:26:38.939Z,13.07
2018-11-26T19:29:07.315Z,13.43
2018-11-26T19:31:35.563Z,13.57
2018-11-26T19:34:03.755Z,13.97
2018-11-26T19:36:32.581Z,14.27
2018-11-26T19:39:00.811Z,13.43
2018-11-26T19:41:29.063Z,13.60
2018-11-26T19:43:57.417Z,13.50
2018-11-26T19:46:25.767Z,13.80
2018-11-26T19:48:54.105Z,13.90
2018-11-26T19:51:22.413Z,15.00
2018-11-26T19:53:50.724Z,14.30
2018-11-26T19:56:19.093Z,13.97
2018-11-26T19:58:47.350Z,14.70
2018-11-26T20:01:15.627Z,14.77
2018-11-26T20:03:46.475Z,13.73
2018-11-26T20:06:18.891Z,13.77
2018-11-26T20:08:50.887Z,13.70
2018-11-26T20:11:19.222Z,13.73
2018-11-26T20:13:47.567Z,13.93
2018-11-26T20:16:23.592Z,13.07
2018-11-26T20:18:51.922Z,15.40
2018-11-26T20:21:20.241Z,16.17
2018-11-26T20:23:48.558Z,14.33
2018-11-26T20:26:16.809Z,15.90
2018-11-26T20:28:45.163Z,16.10
2018-11-26T20:31:13.484Z,16.83
2018-11-26T20:33:42.516Z,16.03
2018-11-26T20:36:12.079Z,18.47
2018-11-26T20:38:40.397Z,17.70
2018-11-26T20:41:09.784Z,18.10
2018-11-26T20:43:38.053Z,20.13
2018-11-26T20:46:06.420Z,19.20
2018-11-26T20:48:34.938Z,18.60
2018-11-26T20:51:03.258Z,20.07
2018-11-26T20:53:31.582Z,20.00
2018-11-26T20:56:00.316Z,17.47
2018-11-26T20:58:28.569Z,18.00
2018-11-26T21:00:57.870Z,18.60
2018-11-26T21:03:29.501Z,17.00
2018-11-26T21:05:58.079Z,17.97
2018-11-26T21:08:26.330Z,18.37
2018-11-26T21:10:55.069Z,18.97
2018-11-26T21:13:23.479Z,17.33
2018-11-26T21:15:51.762Z,18.80
2018-11-26T21:18:20.152Z,17.50
2018-11-26T21:20:49.539Z,18.60
2018-11-26T21:23:21.112Z,18.17
2018-11-26T21:25:49.564Z,19.10
2018-11-26T21:28:17.877Z,17.47
2018-11-26T21:30:51.614Z,18.43
2018-11-26T21:33:14.686Z,20.07
2018-11-26T21:35:42.998Z,18.80
2018-11-26T21:38:11.863Z,18.67
2018-11-26T21:40:40.606Z,19.30
2018-11-26T21:43:09.706Z,19.30
2018-11-26T21:45:41.675Z,20.10
2018-11-26T21:48:10.298Z,20.10
2018-11-26T21:50:38.627Z,18.93
2018-11-26T21:53:07.444Z,19.80
2018-11-26T21:55:35.680Z,20.63
2018-11-26T21:58:03.974Z,20.20
2018-11-26T22:00:32.446Z,19.20
2018-11-26T22:03:06.866Z,20.10
2018-11-26T22:05:35.182Z,19.97
2018-11-26T22:08:03.411Z,20.03
2018-11-26T22:10:31.668Z,20.27
2018-11-26T22:12:59.931Z,19.30
2018-11-26T22:15:28.204Z,19.10
2018-11-26T22:17:56.393Z,19.50
2018-11-26T22:20:25.742Z,19.87
2018-11-26T22:22:54.018Z,19.57
2018-11-26T22:25:22.223Z,19.90
2018-11-26T22:27:50.669Z,17.90
2018-11-26T22:30:26.844Z,17.97
2018-11-26T22:32:55.060Z,20.23
2018-11-26T22:35:23.316Z,19.50
2018-11-26T22:37:51.607Z,19.00
2018-11-26T22:40:22.401Z,20.50
2018-11-26T22:42:50.887Z,19.80
2018-11-26T22:45:23.230Z,18.50
2018-11-26T22:48:09.258Z,17.80
2018-11-26T22:50:38.740Z,19.43
2018-11-26T22:53:08.070Z,19.77
2018-11-26T22:55:36.392Z,19.17
2018-11-26T22:58:05.322Z,18.40
2018-11-26T23:00:42.084Z,18.50
2018-11-26T23:03:11.562Z,17.82
2018-11-26T23:05:39.896Z,18.00
2018-11-26T23:08:08.262Z,18.12
2018-11-26T23:10:36.638Z,17.45
2018-11-26T23:13:05.124Z,18.35
2018-11-26T23:15:33.485Z,18.27
2018-11-26T23:18:01.831Z,18.55
2018-11-26T23:20:30.222Z,18.15
2018-11-26T23:22:58.614Z,18.70
2018-11-26T23:25:26.892Z,17.70
2018-11-26T23:27:55.153Z,18.77
2018-11-26T23:30:24.469Z,19.17
2018-11-26T23:32:57.140Z,17.82
2018-11-26T23:35:25.374Z,17.27
2018-11-26T23:37:53.749Z,17.52
2018-11-26T23:40:22.045Z,19.17
2018-11-26T23:42:50.376Z,18.02
2018-11-26T23:45:19.679Z,19.65
2018-11-26T23:47:47.947Z,18.32
2018-11-26T23:50:16.893Z,18.75
2018-11-26T23:52:45.627Z,18.50
2018-11-26T23:55:15.043Z,17.87
2018-11-26T23:57:43.346Z,19.77
